<?xml version="1.0" encoding="UTF-8"?>
<gpx xmlns:xsi="http://www.w3.org/2001/XMLSchema-instance" xmlns="http://www.topografix.com/GPX/1/1" xsi:schemaLocation="http://www.topografix.com/GPX/1/1 http://www.topografix.com/GPX/1/1/gpx.xsd" version="1.1">
  <metadata>
    <name>HITS Palm Springs, CA (Bike - Olympic)</name>
    <copyright author="OpenStreetMap contributors">
      <year>2020</year>
      <license>https://www.openstreetmap.org/copyright</license>
    </copyright>
    <link href="https://www.strava.com/routes/5554318"/>
  </metadata>
  <trk>
    <name>HITS Palm Springs, CA (Bike - Olympic)</name>
    <link href="https://www.strava.com/routes/5554318"/>
    <type>Radfahrt</type>
    <trkseg>
      <trkpt lat="33.631528" lon="-116.277968">
        <ele>5.820009</ele>
        <time>2024-10-19T09:45:00.000Z</time>
      </trkpt>
      <trkpt lat="33.631556" lon="-116.278124">
        <ele>6.230009</ele>
        <time>2024-10-19T09:45:01.000Z</time>
      </trkpt>
      <trkpt lat="33.63175" lon="-116.278066">
        <ele>6.370002</ele>
        <time>2024-10-19T09:45:03.000Z</time>
      </trkpt>
      <trkpt lat="33.631405" lon="-116.27817">
        <ele>6.249996</ele>
        <time>2024-10-19T09:45:07.000Z</time>
      </trkpt>
      <trkpt lat="33.630534" lon="-116.278346">
        <ele>7.830008</ele>
        <time>2024-10-19T09:45:17.000Z</time>
      </trkpt>
      <trkpt lat="33.630413" lon="-116.278357">
        <ele>8.449991</ele>
        <time>2024-10-19T09:45:18.000Z</time>
      </trkpt>
      <trkpt lat="33.630351" lon="-116.278299">
        <ele>8.450008</ele>
        <time>2024-10-19T09:45:19.000Z</time>
      </trkpt>
      <trkpt lat="33.630148" lon="-116.27818">
        <ele>9.289994</ele>
        <time>2024-10-19T09:45:22.000Z</time>
      </trkpt>
      <trkpt lat="33.629925" lon="-116.277949">
        <ele>9.900008</ele>
        <time>2024-10-19T09:45:25.000Z</time>
      </trkpt>
      <trkpt lat="33.629601" lon="-116.277385">
        <ele>11.910008</ele>
        <time>2024-10-19T09:45:31.000Z</time>
      </trkpt>
      <trkpt lat="33.629326" lon="-116.27764">
        <ele>14.119995</ele>
        <time>2024-10-19T09:45:35.000Z</time>
      </trkpt>
      <trkpt lat="33.629086" lon="-116.277737">
        <ele>14.510005</ele>
        <time>2024-10-19T09:45:38.000Z</time>
      </trkpt>
      <trkpt lat="33.628832" lon="-116.27777">
        <ele>14.309999</ele>
        <time>2024-10-19T09:45:41.000Z</time>
      </trkpt>
      <trkpt lat="33.628604" lon="-116.277641">
        <ele>13.659998</ele>
        <time>2024-10-19T09:45:44.000Z</time>
      </trkpt>
      <trkpt lat="33.628519" lon="-116.277465">
        <ele>12.990009</ele>
        <time>2024-10-19T09:45:46.000Z</time>
      </trkpt>
      <trkpt lat="33.628278" lon="-116.276743">
        <ele>9.429992</ele>
        <time>2024-10-19T09:45:53.000Z</time>
      </trkpt>
      <trkpt lat="33.628089" lon="-116.276332">
        <ele>8.390004</ele>
        <time>2024-10-19T09:45:57.000Z</time>
      </trkpt>
      <trkpt lat="33.6277960007" lon="-116.275876998">
        <ele>6.339999</ele>
        <time>2024-10-19T09:46:02.000Z</time>
      </trkpt>
      <trkpt lat="33.627525" lon="-116.275405">
        <ele>4.769998</ele>
        <time>2024-10-19T09:46:07.000Z</time>
      </trkpt>
      <trkpt lat="33.627067" lon="-116.274779">
        <ele>3.260007</ele>
        <time>2024-10-19T09:46:15.000Z</time>
      </trkpt>
      <trkpt lat="33.6264610022" lon="-116.274044995">
        <ele>3.319997</ele>
        <time>2024-10-19T09:46:25.000Z</time>
      </trkpt>
      <trkpt lat="33.625847" lon="-116.273308">
        <ele>4.860003</ele>
        <time>2024-10-19T09:46:35.000Z</time>
      </trkpt>
      <trkpt lat="33.625342" lon="-116.272534">
        <ele>5.719999</ele>
        <time>2024-10-19T09:46:44.000Z</time>
      </trkpt>
      <trkpt lat="33.625004" lon="-116.271898">
        <ele>6.539991</ele>
        <time>2024-10-19T09:46:51.000Z</time>
      </trkpt>
      <trkpt lat="33.6247040019" lon="-116.271195998">
        <ele>6.649995</ele>
        <time>2024-10-19T09:46:58.000Z</time>
      </trkpt>
      <trkpt lat="33.624401" lon="-116.270503">
        <ele>6.519996</ele>
        <time>2024-10-19T09:47:05.000Z</time>
      </trkpt>
      <trkpt lat="33.624295" lon="-116.270093">
        <ele>6.959995</ele>
        <time>2024-10-19T09:47:09.000Z</time>
      </trkpt>
      <trkpt lat="33.624354" lon="-116.269899">
        <ele>7.239996</ele>
        <time>2024-10-19T09:47:11.000Z</time>
      </trkpt>
      <trkpt lat="33.624467" lon="-116.269658">
        <ele>7.919993</ele>
        <time>2024-10-19T09:47:14.000Z</time>
      </trkpt>
      <trkpt lat="33.624717" lon="-116.269239">
        <ele>9.950004</ele>
        <time>2024-10-19T09:47:19.000Z</time>
      </trkpt>
      <trkpt lat="33.625046" lon="-116.268851">
        <ele>10.23</ele>
        <time>2024-10-19T09:47:24.000Z</time>
      </trkpt>
      <trkpt lat="33.625478" lon="-116.268495">
        <ele>7.779992</ele>
        <time>2024-10-19T09:47:30.000Z</time>
      </trkpt>
      <trkpt lat="33.625925" lon="-116.268281">
        <ele>3.289996</ele>
        <time>2024-10-19T09:47:35.000Z</time>
      </trkpt>
      <trkpt lat="33.626373" lon="-116.268137">
        <ele>0.049999</ele>
        <time>2024-10-19T09:47:40.000Z</time>
      </trkpt>
      <trkpt lat="33.626668" lon="-116.268107">
        <ele>-1.099996</ele>
        <time>2024-10-19T09:47:43.000Z</time>
      </trkpt>
      <trkpt lat="33.627414" lon="-116.268149">
        <ele>-1.830004</ele>
        <time>2024-10-19T09:47:51.000Z</time>
      </trkpt>
      <trkpt lat="33.627468" lon="-116.268085">
        <ele>-1.829992</ele>
        <time>2024-10-19T09:47:52.000Z</time>
      </trkpt>
      <trkpt lat="33.626681" lon="-116.268099">
        <ele>-1.120008</ele>
        <time>2024-10-19T09:48:01.000Z</time>
      </trkpt>
      <trkpt lat="33.627414" lon="-116.268149">
        <ele>-1.830006</ele>
        <time>2024-10-19T09:48:09.000Z</time>
      </trkpt>
      <trkpt lat="33.627533" lon="-116.268028">
        <ele>-1.870005</ele>
        <time>2024-10-19T09:48:11.000Z</time>
      </trkpt>
      <trkpt lat="33.62757" lon="-116.267924">
        <ele>-1.870002</ele>
        <time>2024-10-19T09:48:12.000Z</time>
      </trkpt>
      <trkpt lat="33.6275640362" lon="-116.266865889">
        <ele>-3.939998</ele>
        <time>2024-10-19T09:48:22.000Z</time>
      </trkpt>
      <trkpt lat="33.6275770634" lon="-116.265788778">
        <ele>-4.979999</ele>
        <time>2024-10-19T09:48:32.000Z</time>
      </trkpt>
      <trkpt lat="33.6275780816" lon="-116.264728667">
        <ele>-6.820006</ele>
        <time>2024-10-19T09:48:42.000Z</time>
      </trkpt>
      <trkpt lat="33.6275750906" lon="-116.263680556">
        <ele>-8.049992</ele>
        <time>2024-10-19T09:48:52.000Z</time>
      </trkpt>
      <trkpt lat="33.6275690906" lon="-116.262606444">
        <ele>-8.890003</ele>
        <time>2024-10-19T09:49:02.000Z</time>
      </trkpt>
      <trkpt lat="33.6275690816" lon="-116.261545333">
        <ele>-9.619998</ele>
        <time>2024-10-19T09:49:12.000Z</time>
      </trkpt>
      <trkpt lat="33.6275760634" lon="-116.260501222">
        <ele>-10.619997</ele>
        <time>2024-10-19T09:49:22.000Z</time>
      </trkpt>
      <trkpt lat="33.6275720362" lon="-116.259425111">
        <ele>-11.300004</ele>
        <time>2024-10-19T09:49:32.000Z</time>
      </trkpt>
      <trkpt lat="33.627568" lon="-116.258376">
        <ele>-11.869991</ele>
        <time>2024-10-19T09:49:42.000Z</time>
      </trkpt>
      <trkpt lat="33.6275620156" lon="-116.257385">
        <ele>-11.949996</ele>
        <time>2024-10-19T09:49:51.000Z</time>
      </trkpt>
      <trkpt lat="33.6275590235" lon="-116.256391999">
        <ele>-11.689995</ele>
        <time>2024-10-19T09:50:00.000Z</time>
      </trkpt>
      <trkpt lat="33.6275450235" lon="-116.255410999">
        <ele>-11.940005</ele>
        <time>2024-10-19T09:50:09.000Z</time>
      </trkpt>
      <trkpt lat="33.6275360156" lon="-116.254426">
        <ele>-12.659995</ele>
        <time>2024-10-19T09:50:18.000Z</time>
      </trkpt>
      <trkpt lat="33.627514" lon="-116.253432">
        <ele>-13.220007</ele>
        <time>2024-10-19T09:50:27.000Z</time>
      </trkpt>
      <trkpt lat="33.627538006" lon="-116.252577334">
        <ele>-13.53</ele>
        <time>2024-10-19T09:50:35.000Z</time>
      </trkpt>
      <trkpt lat="33.627531006" lon="-116.251697667">
        <ele>-13.859994</ele>
        <time>2024-10-19T09:50:43.000Z</time>
      </trkpt>
      <trkpt lat="33.627551" lon="-116.250842">
        <ele>-13.360008</ele>
        <time>2024-10-19T09:50:51.000Z</time>
      </trkpt>
      <trkpt lat="33.6275480136" lon="-116.249928">
        <ele>-14.029998</ele>
        <time>2024-10-19T09:50:59.000Z</time>
      </trkpt>
      <trkpt lat="33.6275570203" lon="-116.249">
        <ele>-14.790004</ele>
        <time>2024-10-19T09:51:08.000Z</time>
      </trkpt>
      <trkpt lat="33.6275580203" lon="-116.248091">
        <ele>-15.550005</ele>
        <time>2024-10-19T09:51:16.000Z</time>
      </trkpt>
      <trkpt lat="33.6275420136" lon="-116.247175">
        <ele>-16.270003</ele>
        <time>2024-10-19T09:51:24.000Z</time>
      </trkpt>
      <trkpt lat="33.627557" lon="-116.246257">
        <ele>-16.689996</ele>
        <time>2024-10-19T09:51:33.000Z</time>
      </trkpt>
      <trkpt lat="33.627546016" lon="-116.245257999">
        <ele>-17.030008</ele>
        <time>2024-10-19T09:51:42.000Z</time>
      </trkpt>
      <trkpt lat="33.627532024" lon="-116.244250999">
        <ele>-17.389993</ele>
        <time>2024-10-19T09:51:51.000Z</time>
      </trkpt>
      <trkpt lat="33.627520024" lon="-116.243264999">
        <ele>-17.600006</ele>
        <time>2024-10-19T09:52:00.000Z</time>
      </trkpt>
      <trkpt lat="33.627509016" lon="-116.242255999">
        <ele>-17.920009</ele>
        <time>2024-10-19T09:52:09.000Z</time>
      </trkpt>
      <trkpt lat="33.627485" lon="-116.241267">
        <ele>-18.280006</ele>
        <time>2024-10-19T09:52:18.000Z</time>
      </trkpt>
      <trkpt lat="33.6274886861" lon="-116.240281333">
        <ele>-18.430001</ele>
        <time>2024-10-19T09:52:27.000Z</time>
      </trkpt>
      <trkpt lat="33.6274873644" lon="-116.239299666">
        <ele>-18.709999</ele>
        <time>2024-10-19T09:52:36.000Z</time>
      </trkpt>
      <trkpt lat="33.6274820349" lon="-116.238312">
        <ele>-19.020003</ele>
        <time>2024-10-19T09:52:45.000Z</time>
      </trkpt>
      <trkpt lat="33.6274736977" lon="-116.237325333">
        <ele>-19.270007</ele>
        <time>2024-10-19T09:52:54.000Z</time>
      </trkpt>
      <trkpt lat="33.6274663527" lon="-116.236359666">
        <ele>-19.310003</ele>
        <time>2024-10-19T09:53:03.000Z</time>
      </trkpt>
      <trkpt lat="33.627473" lon="-116.235373">
        <ele>-19.579992</ele>
        <time>2024-10-19T09:53:12.000Z</time>
      </trkpt>
      <trkpt lat="33.6274510041" lon="-116.234361">
        <ele>-19.559992</ele>
        <time>2024-10-19T09:53:21.000Z</time>
      </trkpt>
      <trkpt lat="33.627423" lon="-116.233359">
        <ele>-19.299994</ele>
        <time>2024-10-19T09:53:30.000Z</time>
      </trkpt>
      <trkpt lat="33.6274351253" lon="-116.232330119">
        <ele>-20.089992</ele>
        <time>2024-10-19T09:53:40.000Z</time>
      </trkpt>
      <trkpt lat="33.6274502422" lon="-116.231325238">
        <ele>-20.469997</ele>
        <time>2024-10-19T09:53:49.000Z</time>
      </trkpt>
      <trkpt lat="33.6274583509" lon="-116.230307356">
        <ele>-20.549995</ele>
        <time>2024-10-19T09:53:58.000Z</time>
      </trkpt>
      <trkpt lat="33.6274504512" lon="-116.229288475">
        <ele>-20.480002</ele>
        <time>2024-10-19T09:54:07.000Z</time>
      </trkpt>
      <trkpt lat="33.6274585433" lon="-116.228266593">
        <ele>-20.659996</ele>
        <time>2024-10-19T09:54:16.000Z</time>
      </trkpt>
      <trkpt lat="33.627466627" lon="-116.227257711">
        <ele>-20.809992</ele>
        <time>2024-10-19T09:54:25.000Z</time>
      </trkpt>
      <trkpt lat="33.6274837025" lon="-116.226236829">
        <ele>-20.910007</ele>
        <time>2024-10-19T09:54:34.000Z</time>
      </trkpt>
      <trkpt lat="33.6274817696" lon="-116.225224947">
        <ele>-21.259996</ele>
        <time>2024-10-19T09:54:43.000Z</time>
      </trkpt>
      <trkpt lat="33.6274868284" lon="-116.224198065">
        <ele>-21.519993</ele>
        <time>2024-10-19T09:54:53.000Z</time>
      </trkpt>
      <trkpt lat="33.6275088789" lon="-116.223185182">
        <ele>-21.689999</ele>
        <time>2024-10-19T09:55:02.000Z</time>
      </trkpt>
      <trkpt lat="33.6275139211" lon="-116.2221733">
        <ele>-21.920008</ele>
        <time>2024-10-19T09:55:11.000Z</time>
      </trkpt>
      <trkpt lat="33.6275109551" lon="-116.221152417">
        <ele>-21.949995</ele>
        <time>2024-10-19T09:55:20.000Z</time>
      </trkpt>
      <trkpt lat="33.6275129807" lon="-116.220141534">
        <ele>-22.180005</ele>
        <time>2024-10-19T09:55:29.000Z</time>
      </trkpt>
      <trkpt lat="33.6275379979" lon="-116.219135651">
        <ele>-22.529994</ele>
        <time>2024-10-19T09:55:38.000Z</time>
      </trkpt>
      <trkpt lat="33.6275440069" lon="-116.218108767">
        <ele>-22.949998</ele>
        <time>2024-10-19T09:55:48.000Z</time>
      </trkpt>
      <trkpt lat="33.6275440076" lon="-116.217104884">
        <ele>-23.369991</ele>
        <time>2024-10-19T09:55:57.000Z</time>
      </trkpt>
      <trkpt lat="33.627556" lon="-116.216075">
        <ele>-23.279999</ele>
        <time>2024-10-19T09:56:07.000Z</time>
      </trkpt>
      <trkpt lat="33.627284" lon="-116.216082">
        <ele>-23.600008</ele>
        <time>2024-10-19T09:56:10.000Z</time>
      </trkpt>
      <trkpt lat="33.623935" lon="-116.216082">
        <ele>-23.029993</ele>
        <time>2024-10-19T09:56:47.000Z</time>
      </trkpt>
      <trkpt lat="33.6230926154" lon="-116.216081">
        <ele>-23.380006</ele>
        <time>2024-10-19T09:56:56.000Z</time>
      </trkpt>
      <trkpt lat="33.6222442308" lon="-116.216082">
        <ele>-23.570009</ele>
        <time>2024-10-19T09:57:05.000Z</time>
      </trkpt>
      <trkpt lat="33.6213988462" lon="-116.216071">
        <ele>-23.790008</ele>
        <time>2024-10-19T09:57:14.000Z</time>
      </trkpt>
      <trkpt lat="33.6205604615" lon="-116.216074">
        <ele>-23.789997</ele>
        <time>2024-10-19T09:57:23.000Z</time>
      </trkpt>
      <trkpt lat="33.6197160769" lon="-116.216075">
        <ele>-23.980008</ele>
        <time>2024-10-19T09:57:32.000Z</time>
      </trkpt>
      <trkpt lat="33.6188616923" lon="-116.216081">
        <ele>-24.240009</ele>
        <time>2024-10-19T09:57:42.000Z</time>
      </trkpt>
      <trkpt lat="33.6180303077" lon="-116.216074">
        <ele>-24.369998</ele>
        <time>2024-10-19T09:57:51.000Z</time>
      </trkpt>
      <trkpt lat="33.6171799231" lon="-116.216075">
        <ele>-24.940004</ele>
        <time>2024-10-19T09:58:00.000Z</time>
      </trkpt>
      <trkpt lat="33.6163305385" lon="-116.216072">
        <ele>-25.330009</ele>
        <time>2024-10-19T09:58:09.000Z</time>
      </trkpt>
      <trkpt lat="33.6154851538" lon="-116.216088">
        <ele>-25.760004</ele>
        <time>2024-10-19T09:58:18.000Z</time>
      </trkpt>
      <trkpt lat="33.6146437692" lon="-116.216085">
        <ele>-26.640005</ele>
        <time>2024-10-19T09:58:27.000Z</time>
      </trkpt>
      <trkpt lat="33.6137913846" lon="-116.216072">
        <ele>-26.599999</ele>
        <time>2024-10-19T09:58:36.000Z</time>
      </trkpt>
      <trkpt lat="33.612959" lon="-116.216072">
        <ele>-25.659994</ele>
        <time>2024-10-19T09:58:45.000Z</time>
      </trkpt>
      <trkpt lat="33.6120874706" lon="-116.21607847">
        <ele>-26.769997</ele>
        <time>2024-10-19T09:58:55.000Z</time>
      </trkpt>
      <trkpt lat="33.6112219412" lon="-116.21607194">
        <ele>-27.280005</ele>
        <time>2024-10-19T09:59:05.000Z</time>
      </trkpt>
      <trkpt lat="33.6103634118" lon="-116.21607241">
        <ele>-27.520004</ele>
        <time>2024-10-19T09:59:15.000Z</time>
      </trkpt>
      <trkpt lat="33.6094928824" lon="-116.216071881">
        <ele>-27.769998</ele>
        <time>2024-10-19T09:59:25.000Z</time>
      </trkpt>
      <trkpt lat="33.6086313529" lon="-116.216060351">
        <ele>-27.9</ele>
        <time>2024-10-19T09:59:35.000Z</time>
      </trkpt>
      <trkpt lat="33.6077778235" lon="-116.216058821">
        <ele>-27.970008</ele>
        <time>2024-10-19T09:59:44.000Z</time>
      </trkpt>
      <trkpt lat="33.6069082941" lon="-116.216053292">
        <ele>-28.040002</ele>
        <time>2024-10-19T09:59:54.000Z</time>
      </trkpt>
      <trkpt lat="33.6060457647" lon="-116.216042762">
        <ele>-28.069997</ele>
        <time>2024-10-19T10:00:04.000Z</time>
      </trkpt>
      <trkpt lat="33.6051702353" lon="-116.216056233">
        <ele>-27.909997</ele>
        <time>2024-10-19T10:00:14.000Z</time>
      </trkpt>
      <trkpt lat="33.6043067059" lon="-116.216041703">
        <ele>-28.049997</ele>
        <time>2024-10-19T10:00:24.000Z</time>
      </trkpt>
      <trkpt lat="33.6034551765" lon="-116.216048174">
        <ele>-28.309996</ele>
        <time>2024-10-19T10:00:33.000Z</time>
      </trkpt>
      <trkpt lat="33.602583647" lon="-116.216036645">
        <ele>-28.780007</ele>
        <time>2024-10-19T10:00:43.000Z</time>
      </trkpt>
      <trkpt lat="33.6017291176" lon="-116.216037116">
        <ele>-29.170001</ele>
        <time>2024-10-19T10:00:53.000Z</time>
      </trkpt>
      <trkpt lat="33.6008545882" lon="-116.216029587">
        <ele>-30.259998</ele>
        <time>2024-10-19T10:01:03.000Z</time>
      </trkpt>
      <trkpt lat="33.6000050588" lon="-116.216027058">
        <ele>-31.299995</ele>
        <time>2024-10-19T10:01:12.000Z</time>
      </trkpt>
      <trkpt lat="33.5991265294" lon="-116.216019529">
        <ele>-31.910008</ele>
        <time>2024-10-19T10:01:22.000Z</time>
      </trkpt>
      <trkpt lat="33.598279" lon="-116.216017">
        <ele>-31.999999</ele>
        <time>2024-10-19T10:01:31.000Z</time>
      </trkpt>
      <trkpt lat="33.597441" lon="-116.216046001">
        <ele>-32.879998</ele>
        <time>2024-10-19T10:01:40.000Z</time>
      </trkpt>
      <trkpt lat="33.59663" lon="-116.216066001">
        <ele>-32.839996</ele>
        <time>2024-10-19T10:01:49.000Z</time>
      </trkpt>
      <trkpt lat="33.595816" lon="-116.216077001">
        <ele>-32.529995</ele>
        <time>2024-10-19T10:01:58.000Z</time>
      </trkpt>
      <trkpt lat="33.594982" lon="-116.216107001">
        <ele>-32.160002</ele>
        <time>2024-10-19T10:02:07.000Z</time>
      </trkpt>
      <trkpt lat="33.594171" lon="-116.216134">
        <ele>-31.640007</ele>
        <time>2024-10-19T10:02:16.000Z</time>
      </trkpt>
      <trkpt lat="33.59333075" lon="-116.216114499">
        <ele>-31.799992</ele>
        <time>2024-10-19T10:02:25.000Z</time>
      </trkpt>
      <trkpt lat="33.5924735" lon="-116.216108999">
        <ele>-31.929998</ele>
        <time>2024-10-19T10:02:35.000Z</time>
      </trkpt>
      <trkpt lat="33.59163025" lon="-116.216083498">
        <ele>-32.110008</ele>
        <time>2024-10-19T10:02:44.000Z</time>
      </trkpt>
      <trkpt lat="33.590793" lon="-116.216078998">
        <ele>-32.140004</ele>
        <time>2024-10-19T10:02:53.000Z</time>
      </trkpt>
      <trkpt lat="33.58993575" lon="-116.216076498">
        <ele>-32.179993</ele>
        <time>2024-10-19T10:03:03.000Z</time>
      </trkpt>
      <trkpt lat="33.5891004999" lon="-116.216051999">
        <ele>-32.320009</ele>
        <time>2024-10-19T10:03:12.000Z</time>
      </trkpt>
      <trkpt lat="33.5882482499" lon="-116.216039499">
        <ele>-32.499995</ele>
        <time>2024-10-19T10:03:21.000Z</time>
      </trkpt>
      <trkpt lat="33.587401" lon="-116.216037">
        <ele>-32.590003</ele>
        <time>2024-10-19T10:03:30.000Z</time>
      </trkpt>
      <trkpt lat="33.586665" lon="-116.216036">
        <ele>-32.749991</ele>
        <time>2024-10-19T10:03:38.000Z</time>
      </trkpt>
      <trkpt lat="33.585949" lon="-116.216056001">
        <ele>-32.820004</ele>
        <time>2024-10-19T10:03:46.000Z</time>
      </trkpt>
      <trkpt lat="33.585223" lon="-116.216066001">
        <ele>-32.769999</ele>
        <time>2024-10-19T10:03:54.000Z</time>
      </trkpt>
      <trkpt lat="33.584484" lon="-116.216065">
        <ele>-32.880001</ele>
        <time>2024-10-19T10:04:02.000Z</time>
      </trkpt>
      <trkpt lat="33.583768" lon="-116.216081">
        <ele>-32.840001</ele>
        <time>2024-10-19T10:04:10.000Z</time>
      </trkpt>
      <trkpt lat="33.5830263334" lon="-116.216038666">
        <ele>-32.840007</ele>
        <time>2024-10-19T10:04:18.000Z</time>
      </trkpt>
      <trkpt lat="33.5822786667" lon="-116.216008333">
        <ele>-32.570001</ele>
        <time>2024-10-19T10:04:26.000Z</time>
      </trkpt>
      <trkpt lat="33.581548" lon="-116.215972">
        <ele>-32.319999</ele>
        <time>2024-10-19T10:04:34.000Z</time>
      </trkpt>
      <trkpt lat="33.580717" lon="-116.215981">
        <ele>-31.859999</ele>
        <time>2024-10-19T10:04:43.000Z</time>
      </trkpt>
      <trkpt lat="33.579905" lon="-116.215996001">
        <ele>-31.429992</ele>
        <time>2024-10-19T10:04:52.000Z</time>
      </trkpt>
      <trkpt lat="33.579085" lon="-116.216019001">
        <ele>-30.970005</ele>
        <time>2024-10-19T10:05:01.000Z</time>
      </trkpt>
      <trkpt lat="33.578257" lon="-116.216011">
        <ele>-30.379997</ele>
        <time>2024-10-19T10:05:10.000Z</time>
      </trkpt>
      <trkpt lat="33.577421" lon="-116.216035">
        <ele>-30.159994</ele>
        <time>2024-10-19T10:05:19.000Z</time>
      </trkpt>
      <trkpt lat="33.5766970001" lon="-116.216004">
        <ele>-29.86</ele>
        <time>2024-10-19T10:05:27.000Z</time>
      </trkpt>
      <trkpt lat="33.575947" lon="-116.215998">
        <ele>-29.580005</ele>
        <time>2024-10-19T10:05:35.000Z</time>
      </trkpt>
      <trkpt lat="33.5751040001" lon="-116.215999">
        <ele>-29.140003</ele>
        <time>2024-10-19T10:05:44.000Z</time>
      </trkpt>
      <trkpt lat="33.574258" lon="-116.215983">
        <ele>-28.480005</ele>
        <time>2024-10-19T10:05:53.000Z</time>
      </trkpt>
      <trkpt lat="33.5734070001" lon="-116.215995">
        <ele>-27.879991</ele>
        <time>2024-10-19T10:06:02.000Z</time>
      </trkpt>
      <trkpt lat="33.572549" lon="-116.216007">
        <ele>-26.679999</ele>
        <time>2024-10-19T10:06:12.000Z</time>
      </trkpt>
      <trkpt lat="33.572107" lon="-116.215992">
        <ele>-25.680009</ele>
        <time>2024-10-19T10:06:17.000Z</time>
      </trkpt>
      <trkpt lat="33.5713950042" lon="-116.215411486">
        <ele>-24.340006</ele>
        <time>2024-10-19T10:06:27.000Z</time>
      </trkpt>
      <trkpt lat="33.5706950056" lon="-116.214808981">
        <ele>-23.230004</ele>
        <time>2024-10-19T10:06:37.000Z</time>
      </trkpt>
      <trkpt lat="33.5699830042" lon="-116.214228486">
        <ele>-22.090002</ele>
        <time>2024-10-19T10:06:47.000Z</time>
      </trkpt>
      <trkpt lat="33.569277" lon="-116.21364">
        <ele>-19.489991</ele>
        <time>2024-10-19T10:06:57.000Z</time>
      </trkpt>
      <trkpt lat="33.569265" lon="-116.213331">
        <ele>-19.490003</ele>
        <time>2024-10-19T10:07:00.000Z</time>
      </trkpt>
      <trkpt lat="33.569266338" lon="-116.212574">
        <ele>-19.889994</ele>
        <time>2024-10-19T10:07:07.000Z</time>
      </trkpt>
      <trkpt lat="33.5692766713" lon="-116.211827">
        <ele>-20.900004</ele>
        <time>2024-10-19T10:07:14.000Z</time>
      </trkpt>
      <trkpt lat="33.569274" lon="-116.211059">
        <ele>-21.279992</ele>
        <time>2024-10-19T10:07:21.000Z</time>
      </trkpt>
      <trkpt lat="33.5692835903" lon="-116.210014">
        <ele>-22.429999</ele>
        <time>2024-10-19T10:07:31.000Z</time>
      </trkpt>
      <trkpt lat="33.569271172" lon="-116.208979999">
        <ele>-22.6</ele>
        <time>2024-10-19T10:07:41.000Z</time>
      </trkpt>
      <trkpt lat="33.5692577449" lon="-116.207946999">
        <ele>-22.339993</ele>
        <time>2024-10-19T10:07:51.000Z</time>
      </trkpt>
      <trkpt lat="33.5692633092" lon="-116.206897999">
        <ele>-22.039995</ele>
        <time>2024-10-19T10:08:01.000Z</time>
      </trkpt>
      <trkpt lat="33.5692668648" lon="-116.205865999">
        <ele>-22.099999</ele>
        <time>2024-10-19T10:08:11.000Z</time>
      </trkpt>
      <trkpt lat="33.5692594116" lon="-116.204825999">
        <ele>-22.129996</ele>
        <time>2024-10-19T10:08:21.000Z</time>
      </trkpt>
      <trkpt lat="33.5692419498" lon="-116.203771999">
        <ele>-22.03</ele>
        <time>2024-10-19T10:08:31.000Z</time>
      </trkpt>
      <trkpt lat="33.5692474792" lon="-116.202744">
        <ele>-21.680003</ele>
        <time>2024-10-19T10:08:41.000Z</time>
      </trkpt>
      <trkpt lat="33.569243" lon="-116.201692">
        <ele>-21.659998</ele>
        <time>2024-10-19T10:08:51.000Z</time>
      </trkpt>
      <trkpt lat="33.5692460082" lon="-116.200882">
        <ele>-21.670008</ele>
        <time>2024-10-19T10:08:59.000Z</time>
      </trkpt>
      <trkpt lat="33.5692690109" lon="-116.200052">
        <ele>-21.819994</ele>
        <time>2024-10-19T10:09:07.000Z</time>
      </trkpt>
      <trkpt lat="33.5692680082" lon="-116.199232">
        <ele>-22.170007</ele>
        <time>2024-10-19T10:09:15.000Z</time>
      </trkpt>
      <trkpt lat="33.569279" lon="-116.198392">
        <ele>-22.189996</ele>
        <time>2024-10-19T10:09:23.000Z</time>
      </trkpt>
      <trkpt lat="33.5692660064" lon="-116.197505">
        <ele>-22.510003</ele>
        <time>2024-10-19T10:09:31.000Z</time>
      </trkpt>
      <trkpt lat="33.5692610064" lon="-116.196611">
        <ele>-22.779997</ele>
        <time>2024-10-19T10:09:39.000Z</time>
      </trkpt>
      <trkpt lat="33.569248" lon="-116.195729">
        <ele>-22.639994</ele>
        <time>2024-10-19T10:09:47.000Z</time>
      </trkpt>
      <trkpt lat="33.5692377681" lon="-116.194716998">
        <ele>-22.729993</ele>
        <time>2024-10-19T10:09:56.000Z</time>
      </trkpt>
      <trkpt lat="33.569216528" lon="-116.193707996">
        <ele>-22.879993</ele>
        <time>2024-10-19T10:10:05.000Z</time>
      </trkpt>
      <trkpt lat="33.5692132795" lon="-116.192680994">
        <ele>-23.230007</ele>
        <time>2024-10-19T10:10:15.000Z</time>
      </trkpt>
      <trkpt lat="33.5691860228" lon="-116.191663993">
        <ele>-23.320008</ele>
        <time>2024-10-19T10:10:24.000Z</time>
      </trkpt>
      <trkpt lat="33.5691867578" lon="-116.190655992">
        <ele>-23.300004</ele>
        <time>2024-10-19T10:10:33.000Z</time>
      </trkpt>
      <trkpt lat="33.5691684845" lon="-116.189638992">
        <ele>-23.309992</ele>
        <time>2024-10-19T10:10:42.000Z</time>
      </trkpt>
      <trkpt lat="33.569157203" lon="-116.188623992">
        <ele>-24.160002</ele>
        <time>2024-10-19T10:10:51.000Z</time>
      </trkpt>
      <trkpt lat="33.5691299131" lon="-116.187614992">
        <ele>-24.729999</ele>
        <time>2024-10-19T10:11:00.000Z</time>
      </trkpt>
      <trkpt lat="33.569128615" lon="-116.186587992">
        <ele>-25.250001</ele>
        <time>2024-10-19T10:11:10.000Z</time>
      </trkpt>
      <trkpt lat="33.5691063085" lon="-116.185578993">
        <ele>-25.790002</ele>
        <time>2024-10-19T10:11:19.000Z</time>
      </trkpt>
      <trkpt lat="33.5690989938" lon="-116.184562994">
        <ele>-26.209997</ele>
        <time>2024-10-19T10:11:28.000Z</time>
      </trkpt>
      <trkpt lat="33.5690816708" lon="-116.183553996">
        <ele>-26.410006</ele>
        <time>2024-10-19T10:11:37.000Z</time>
      </trkpt>
      <trkpt lat="33.5690723396" lon="-116.182536998">
        <ele>-26.540001</ele>
        <time>2024-10-19T10:11:46.000Z</time>
      </trkpt>
      <trkpt lat="33.569053" lon="-116.181515">
        <ele>-26.430007</ele>
        <time>2024-10-19T10:11:55.000Z</time>
      </trkpt>
      <trkpt lat="33.569083" lon="-116.180925">
        <ele>-26.630003</ele>
        <time>2024-10-19T10:12:00.000Z</time>
      </trkpt>
      <trkpt lat="33.569048" lon="-116.180751">
        <ele>-26.890003</ele>
        <time>2024-10-19T10:12:02.000Z</time>
      </trkpt>
      <trkpt lat="33.5690420394" lon="-116.179715001">
        <ele>-29.160004</ele>
        <time>2024-10-19T10:12:12.000Z</time>
      </trkpt>
      <trkpt lat="33.5690470701" lon="-116.178671001">
        <ele>-30.109991</ele>
        <time>2024-10-19T10:12:22.000Z</time>
      </trkpt>
      <trkpt lat="33.569053092" lon="-116.177617001">
        <ele>-30.630002</ele>
        <time>2024-10-19T10:12:32.000Z</time>
      </trkpt>
      <trkpt lat="33.5690571052" lon="-116.176565001">
        <ele>-31.179999</ele>
        <time>2024-10-19T10:12:42.000Z</time>
      </trkpt>
      <trkpt lat="33.5690691096" lon="-116.175537002">
        <ele>-31.710009</ele>
        <time>2024-10-19T10:12:52.000Z</time>
      </trkpt>
      <trkpt lat="33.5690691052" lon="-116.174485001">
        <ele>-31.860004</ele>
        <time>2024-10-19T10:13:02.000Z</time>
      </trkpt>
      <trkpt lat="33.569070092" lon="-116.173445001">
        <ele>-32.389994</ele>
        <time>2024-10-19T10:13:12.000Z</time>
      </trkpt>
      <trkpt lat="33.5690720701" lon="-116.172390001">
        <ele>-33.02</ele>
        <time>2024-10-19T10:13:22.000Z</time>
      </trkpt>
      <trkpt lat="33.5690890394" lon="-116.171347001">
        <ele>-33.719993</ele>
        <time>2024-10-19T10:13:32.000Z</time>
      </trkpt>
      <trkpt lat="33.569098" lon="-116.170305">
        <ele>-34.240007</ele>
        <time>2024-10-19T10:13:42.000Z</time>
      </trkpt>
      <trkpt lat="33.5691026877" lon="-116.169294668">
        <ele>-35.670002</ele>
        <time>2024-10-19T10:13:51.000Z</time>
      </trkpt>
      <trkpt lat="33.569116367" lon="-116.168260335">
        <ele>-36.259991</ele>
        <time>2024-10-19T10:14:01.000Z</time>
      </trkpt>
      <trkpt lat="33.5691400379" lon="-116.167238002">
        <ele>-37.079992</ele>
        <time>2024-10-19T10:14:10.000Z</time>
      </trkpt>
      <trkpt lat="33.5691587003" lon="-116.166208668">
        <ele>-38.320008</ele>
        <time>2024-10-19T10:14:20.000Z</time>
      </trkpt>
      <trkpt lat="33.5691653544" lon="-116.165192334">
        <ele>-39.140002</ele>
        <time>2024-10-19T10:14:29.000Z</time>
      </trkpt>
      <trkpt lat="33.569197" lon="-116.164162">
        <ele>-39.659993</ele>
        <time>2024-10-19T10:14:39.000Z</time>
      </trkpt>
      <trkpt lat="33.5691890136" lon="-116.163108">
        <ele>-41.360006</ele>
        <time>2024-10-19T10:14:49.000Z</time>
      </trkpt>
      <trkpt lat="33.5692040181" lon="-116.162047">
        <ele>-41.860002</ele>
        <time>2024-10-19T10:14:59.000Z</time>
      </trkpt>
      <trkpt lat="33.5692110136" lon="-116.160997">
        <ele>-42.569993</ele>
        <time>2024-10-19T10:15:09.000Z</time>
      </trkpt>
      <trkpt lat="33.569216" lon="-116.159924">
        <ele>-43.109991</ele>
        <time>2024-10-19T10:15:19.000Z</time>
      </trkpt>
      <trkpt lat="33.569205017" lon="-116.15901">
        <ele>-43.590003</ele>
        <time>2024-10-19T10:15:27.000Z</time>
      </trkpt>
      <trkpt lat="33.5692070272" lon="-116.158087">
        <ele>-44.199994</ele>
        <time>2024-10-19T10:15:36.000Z</time>
      </trkpt>
      <trkpt lat="33.5692020306" lon="-116.15717">
        <ele>-45.350005</ele>
        <time>2024-10-19T10:15:44.000Z</time>
      </trkpt>
      <trkpt lat="33.5692040272" lon="-116.156248">
        <ele>-45.940002</ele>
        <time>2024-10-19T10:15:53.000Z</time>
      </trkpt>
      <trkpt lat="33.569206017" lon="-116.155338">
        <ele>-46.329997</ele>
        <time>2024-10-19T10:16:01.000Z</time>
      </trkpt>
      <trkpt lat="33.569219" lon="-116.154403">
        <ele>-47.010008</ele>
        <time>2024-10-19T10:16:10.000Z</time>
      </trkpt>
      <trkpt lat="33.5692153134" lon="-116.153336572">
        <ele>-47.639996</ele>
        <time>2024-10-19T10:16:20.000Z</time>
      </trkpt>
      <trkpt lat="33.5692156176" lon="-116.152263143">
        <ele>-48.299996</ele>
        <time>2024-10-19T10:16:30.000Z</time>
      </trkpt>
      <trkpt lat="33.5692229125" lon="-116.151193715">
        <ele>-48.950005</ele>
        <time>2024-10-19T10:16:40.000Z</time>
      </trkpt>
      <trkpt lat="33.5692221982" lon="-116.150127286">
        <ele>-49.410005</ele>
        <time>2024-10-19T10:16:50.000Z</time>
      </trkpt>
      <trkpt lat="33.5692304747" lon="-116.149060858">
        <ele>-49.769992</ele>
        <time>2024-10-19T10:17:00.000Z</time>
      </trkpt>
      <trkpt lat="33.569239742" lon="-116.147983429">
        <ele>-49.930003</ele>
        <time>2024-10-19T10:17:10.000Z</time>
      </trkpt>
      <trkpt lat="33.569234" lon="-116.146917">
        <ele>-50.090003</ele>
        <time>2024-10-19T10:17:20.000Z</time>
      </trkpt>
      <trkpt lat="33.5692310211" lon="-116.145978714">
        <ele>-50.699991</ele>
        <time>2024-10-19T10:17:29.000Z</time>
      </trkpt>
      <trkpt lat="33.5692290351" lon="-116.145049427">
        <ele>-50.949997</ele>
        <time>2024-10-19T10:17:38.000Z</time>
      </trkpt>
      <trkpt lat="33.5692080421" lon="-116.144108142">
        <ele>-51.149994</ele>
        <time>2024-10-19T10:17:47.000Z</time>
      </trkpt>
      <trkpt lat="33.5692000421" lon="-116.143178856">
        <ele>-51.520006</ele>
        <time>2024-10-19T10:17:56.000Z</time>
      </trkpt>
      <trkpt lat="33.5691910351" lon="-116.14224057">
        <ele>-51.829991</ele>
        <time>2024-10-19T10:18:05.000Z</time>
      </trkpt>
      <trkpt lat="33.5691770211" lon="-116.141296285">
        <ele>-52.219999</ele>
        <time>2024-10-19T10:18:14.000Z</time>
      </trkpt>
      <trkpt lat="33.569171" lon="-116.140363">
        <ele>-52.419994</ele>
        <time>2024-10-19T10:18:23.000Z</time>
      </trkpt>
      <trkpt lat="33.5691790034" lon="-116.139447">
        <ele>-52.649991</ele>
        <time>2024-10-19T10:18:31.000Z</time>
      </trkpt>
      <trkpt lat="33.569174" lon="-116.138545">
        <ele>-52.779997</ele>
        <time>2024-10-19T10:18:39.000Z</time>
      </trkpt>
      <trkpt lat="33.5691780034" lon="-116.139454">
        <ele>-52.650008</ele>
        <time>2024-10-19T10:18:47.000Z</time>
      </trkpt>
      <trkpt lat="33.569164" lon="-116.140366">
        <ele>-52.420006</ele>
        <time>2024-10-19T10:18:55.000Z</time>
      </trkpt>
      <trkpt lat="33.5691710211" lon="-116.141312285">
        <ele>-52.219998</ele>
        <time>2024-10-19T10:19:04.000Z</time>
      </trkpt>
      <trkpt lat="33.5691940351" lon="-116.14224557">
        <ele>-51.830008</ele>
        <time>2024-10-19T10:19:13.000Z</time>
      </trkpt>
      <trkpt lat="33.5692090421" lon="-116.143177856">
        <ele>-51.520007</ele>
        <time>2024-10-19T10:19:22.000Z</time>
      </trkpt>
      <trkpt lat="33.5692040421" lon="-116.144111142">
        <ele>-51.109997</ele>
        <time>2024-10-19T10:19:31.000Z</time>
      </trkpt>
      <trkpt lat="33.5692160351" lon="-116.145035427">
        <ele>-50.950009</ele>
        <time>2024-10-19T10:19:40.000Z</time>
      </trkpt>
      <trkpt lat="33.5692390211" lon="-116.145966714">
        <ele>-50.7</ele>
        <time>2024-10-19T10:19:49.000Z</time>
      </trkpt>
      <trkpt lat="33.569245" lon="-116.146913">
        <ele>-49.949992</ele>
        <time>2024-10-19T10:19:58.000Z</time>
      </trkpt>
      <trkpt lat="33.569241742" lon="-116.147977429">
        <ele>-49.930005</ele>
        <time>2024-10-19T10:20:08.000Z</time>
      </trkpt>
      <trkpt lat="33.5692304747" lon="-116.149060858">
        <ele>-49.77</ele>
        <time>2024-10-19T10:20:18.000Z</time>
      </trkpt>
      <trkpt lat="33.5692201982" lon="-116.150122286">
        <ele>-49.409992</ele>
        <time>2024-10-19T10:20:28.000Z</time>
      </trkpt>
      <trkpt lat="33.5692159125" lon="-116.151193715">
        <ele>-48.849998</ele>
        <time>2024-10-19T10:20:38.000Z</time>
      </trkpt>
      <trkpt lat="33.5692276176" lon="-116.152270143">
        <ele>-48.300007</ele>
        <time>2024-10-19T10:20:48.000Z</time>
      </trkpt>
      <trkpt lat="33.5692053134" lon="-116.153333572">
        <ele>-47.639999</ele>
        <time>2024-10-19T10:20:58.000Z</time>
      </trkpt>
      <trkpt lat="33.569208" lon="-116.154413">
        <ele>-47.009995</ele>
        <time>2024-10-19T10:21:08.000Z</time>
      </trkpt>
      <trkpt lat="33.569206017" lon="-116.155333">
        <ele>-46.329995</ele>
        <time>2024-10-19T10:21:17.000Z</time>
      </trkpt>
      <trkpt lat="33.5692190272" lon="-116.156257">
        <ele>-45.759992</ele>
        <time>2024-10-19T10:21:26.000Z</time>
      </trkpt>
      <trkpt lat="33.5692110306" lon="-116.15717">
        <ele>-45.349995</ele>
        <time>2024-10-19T10:21:34.000Z</time>
      </trkpt>
      <trkpt lat="33.5692110272" lon="-116.158085">
        <ele>-44.200007</ele>
        <time>2024-10-19T10:21:42.000Z</time>
      </trkpt>
      <trkpt lat="33.569206017" lon="-116.159011">
        <ele>-43.390008</ele>
        <time>2024-10-19T10:21:51.000Z</time>
      </trkpt>
      <trkpt lat="33.569216" lon="-116.159938">
        <ele>-43.110001</ele>
        <time>2024-10-19T10:22:00.000Z</time>
      </trkpt>
      <trkpt lat="33.5691980136" lon="-116.160994">
        <ele>-42.570003</ele>
        <time>2024-10-19T10:22:10.000Z</time>
      </trkpt>
      <trkpt lat="33.5692080181" lon="-116.162045">
        <ele>-41.859997</ele>
        <time>2024-10-19T10:22:20.000Z</time>
      </trkpt>
      <trkpt lat="33.5691960136" lon="-116.163109">
        <ele>-41.020006</ele>
        <time>2024-10-19T10:22:30.000Z</time>
      </trkpt>
      <trkpt lat="33.569191" lon="-116.164177">
        <ele>-39.460003</ele>
        <time>2024-10-19T10:22:40.000Z</time>
      </trkpt>
      <trkpt lat="33.5691773544" lon="-116.165188334">
        <ele>-39.139993</ele>
        <time>2024-10-19T10:22:49.000Z</time>
      </trkpt>
      <trkpt lat="33.5691627003" lon="-116.166214668">
        <ele>-38.210001</ele>
        <time>2024-10-19T10:22:59.000Z</time>
      </trkpt>
      <trkpt lat="33.5691450379" lon="-116.167235002">
        <ele>-37.079993</ele>
        <time>2024-10-19T10:23:08.000Z</time>
      </trkpt>
      <trkpt lat="33.569129367" lon="-116.168268335">
        <ele>-36.260005</ele>
        <time>2024-10-19T10:23:18.000Z</time>
      </trkpt>
      <trkpt lat="33.5691056877" lon="-116.169293668">
        <ele>-35.670002</ele>
        <time>2024-10-19T10:23:28.000Z</time>
      </trkpt>
      <trkpt lat="33.569081" lon="-116.170308">
        <ele>-34.240006</ele>
        <time>2024-10-19T10:23:37.000Z</time>
      </trkpt>
      <trkpt lat="33.5690820394" lon="-116.171359001">
        <ele>-33.72</ele>
        <time>2024-10-19T10:23:47.000Z</time>
      </trkpt>
      <trkpt lat="33.5690800701" lon="-116.172402001">
        <ele>-33.020007</ele>
        <time>2024-10-19T10:23:57.000Z</time>
      </trkpt>
      <trkpt lat="33.569075092" lon="-116.173444001">
        <ele>-32.389999</ele>
        <time>2024-10-19T10:24:07.000Z</time>
      </trkpt>
      <trkpt lat="33.5690651052" lon="-116.174483001">
        <ele>-31.859994</ele>
        <time>2024-10-19T10:24:17.000Z</time>
      </trkpt>
      <trkpt lat="33.5690721096" lon="-116.175536001">
        <ele>-31.340005</ele>
        <time>2024-10-19T10:24:27.000Z</time>
      </trkpt>
      <trkpt lat="33.5690621052" lon="-116.176573001">
        <ele>-31.180002</ele>
        <time>2024-10-19T10:24:37.000Z</time>
      </trkpt>
      <trkpt lat="33.569058092" lon="-116.177615001">
        <ele>-30.630005</ele>
        <time>2024-10-19T10:24:47.000Z</time>
      </trkpt>
      <trkpt lat="33.5690540701" lon="-116.178653001">
        <ele>-30.109995</ele>
        <time>2024-10-19T10:24:57.000Z</time>
      </trkpt>
      <trkpt lat="33.5690450394" lon="-116.179701">
        <ele>-29.160003</ele>
        <time>2024-10-19T10:25:07.000Z</time>
      </trkpt>
      <trkpt lat="33.569037" lon="-116.180748">
        <ele>-26.690006</ele>
        <time>2024-10-19T10:25:17.000Z</time>
      </trkpt>
      <trkpt lat="33.569075" lon="-116.180932">
        <ele>-26.629999</ele>
        <time>2024-10-19T10:25:19.000Z</time>
      </trkpt>
      <trkpt lat="33.569047" lon="-116.18152">
        <ele>-26.429994</ele>
        <time>2024-10-19T10:25:24.000Z</time>
      </trkpt>
      <trkpt lat="33.5690653396" lon="-116.182527998">
        <ele>-26.609999</ele>
        <time>2024-10-19T10:25:33.000Z</time>
      </trkpt>
      <trkpt lat="33.5690766708" lon="-116.183545996">
        <ele>-26.409991</ele>
        <time>2024-10-19T10:25:42.000Z</time>
      </trkpt>
      <trkpt lat="33.5690959938" lon="-116.184561994">
        <ele>-26.209995</ele>
        <time>2024-10-19T10:25:51.000Z</time>
      </trkpt>
      <trkpt lat="33.5691133085" lon="-116.185572993">
        <ele>-25.790002</ele>
        <time>2024-10-19T10:26:00.000Z</time>
      </trkpt>
      <trkpt lat="33.569112615" lon="-116.186598992">
        <ele>-25.250008</ele>
        <time>2024-10-19T10:26:10.000Z</time>
      </trkpt>
      <trkpt lat="33.5691439131" lon="-116.187612992">
        <ele>-24.730003</ele>
        <time>2024-10-19T10:26:19.000Z</time>
      </trkpt>
      <trkpt lat="33.569141203" lon="-116.188620992">
        <ele>-24.16</ele>
        <time>2024-10-19T10:26:28.000Z</time>
      </trkpt>
      <trkpt lat="33.5691644845" lon="-116.189642992">
        <ele>-23.309994</ele>
        <time>2024-10-19T10:26:37.000Z</time>
      </trkpt>
      <trkpt lat="33.5691867578" lon="-116.190646992">
        <ele>-23.300007</ele>
        <time>2024-10-19T10:26:46.000Z</time>
      </trkpt>
      <trkpt lat="33.5691910228" lon="-116.191677993">
        <ele>-23.320004</ele>
        <time>2024-10-19T10:26:56.000Z</time>
      </trkpt>
      <trkpt lat="33.5692102795" lon="-116.192676994">
        <ele>-23.229996</ele>
        <time>2024-10-19T10:27:05.000Z</time>
      </trkpt>
      <trkpt lat="33.569216528" lon="-116.193693996">
        <ele>-22.879992</ele>
        <time>2024-10-19T10:27:14.000Z</time>
      </trkpt>
      <trkpt lat="33.5692397681" lon="-116.194718998">
        <ele>-22.729993</ele>
        <time>2024-10-19T10:27:24.000Z</time>
      </trkpt>
      <trkpt lat="33.569257" lon="-116.195736">
        <ele>-22.640004</ele>
        <time>2024-10-19T10:27:33.000Z</time>
      </trkpt>
      <trkpt lat="33.5692690064" lon="-116.196619">
        <ele>-22.769995</ele>
        <time>2024-10-19T10:27:41.000Z</time>
      </trkpt>
      <trkpt lat="33.5692620064" lon="-116.197502">
        <ele>-22.510006</ele>
        <time>2024-10-19T10:27:49.000Z</time>
      </trkpt>
      <trkpt lat="33.569282" lon="-116.198409">
        <ele>-22.189999</ele>
        <time>2024-10-19T10:27:57.000Z</time>
      </trkpt>
      <trkpt lat="33.5692740082" lon="-116.199219">
        <ele>-21.989997</ele>
        <time>2024-10-19T10:28:05.000Z</time>
      </trkpt>
      <trkpt lat="33.5692630109" lon="-116.200041">
        <ele>-21.819999</ele>
        <time>2024-10-19T10:28:13.000Z</time>
      </trkpt>
      <trkpt lat="33.5692500082" lon="-116.200881">
        <ele>-21.669991</ele>
        <time>2024-10-19T10:28:21.000Z</time>
      </trkpt>
      <trkpt lat="33.569247" lon="-116.201693">
        <ele>-21.660001</ele>
        <time>2024-10-19T10:28:29.000Z</time>
      </trkpt>
      <trkpt lat="33.5692364792" lon="-116.202746">
        <ele>-21.679997</ele>
        <time>2024-10-19T10:28:39.000Z</time>
      </trkpt>
      <trkpt lat="33.5692559498" lon="-116.203775999">
        <ele>-22.029996</ele>
        <time>2024-10-19T10:28:49.000Z</time>
      </trkpt>
      <trkpt lat="33.5692474116" lon="-116.204822999">
        <ele>-22.130004</ele>
        <time>2024-10-19T10:28:59.000Z</time>
      </trkpt>
      <trkpt lat="33.5692508648" lon="-116.205855999">
        <ele>-22.100004</ele>
        <time>2024-10-19T10:29:09.000Z</time>
      </trkpt>
      <trkpt lat="33.5692643092" lon="-116.206907999">
        <ele>-22.039994</ele>
        <time>2024-10-19T10:29:19.000Z</time>
      </trkpt>
      <trkpt lat="33.5692617449" lon="-116.207935999">
        <ele>-22.339997</ele>
        <time>2024-10-19T10:29:29.000Z</time>
      </trkpt>
      <trkpt lat="33.569269172" lon="-116.208983999">
        <ele>-22.600004</ele>
        <time>2024-10-19T10:29:39.000Z</time>
      </trkpt>
      <trkpt lat="33.5692815903" lon="-116.210029">
        <ele>-21.670002</ele>
        <time>2024-10-19T10:29:49.000Z</time>
      </trkpt>
      <trkpt lat="33.569283" lon="-116.211063">
        <ele>-21.280001</ele>
        <time>2024-10-19T10:29:59.000Z</time>
      </trkpt>
      <trkpt lat="33.5692846714" lon="-116.211832333">
        <ele>-20.900007</ele>
        <time>2024-10-19T10:30:06.000Z</time>
      </trkpt>
      <trkpt lat="33.569266338" lon="-116.212584667">
        <ele>-19.889994</ele>
        <time>2024-10-19T10:30:13.000Z</time>
      </trkpt>
      <trkpt lat="33.56927" lon="-116.213356">
        <ele>-19.489991</ele>
        <time>2024-10-19T10:30:20.000Z</time>
      </trkpt>
      <trkpt lat="33.569282" lon="-116.213645">
        <ele>-19.489998</ele>
        <time>2024-10-19T10:30:23.000Z</time>
      </trkpt>
      <trkpt lat="33.5699940041" lon="-116.214222486">
        <ele>-22.090006</ele>
        <time>2024-10-19T10:30:33.000Z</time>
      </trkpt>
      <trkpt lat="33.5706970055" lon="-116.214817981">
        <ele>-23.230004</ele>
        <time>2024-10-19T10:30:43.000Z</time>
      </trkpt>
      <trkpt lat="33.5714020041" lon="-116.215405486">
        <ele>-24.340006</ele>
        <time>2024-10-19T10:30:53.000Z</time>
      </trkpt>
      <trkpt lat="33.572091" lon="-116.215991">
        <ele>-25.679992</ele>
        <time>2024-10-19T10:31:02.000Z</time>
      </trkpt>
      <trkpt lat="33.572555" lon="-116.215992">
        <ele>-26.679991</ele>
        <time>2024-10-19T10:31:07.000Z</time>
      </trkpt>
      <trkpt lat="33.5734039999" lon="-116.215991">
        <ele>-27.879992</ele>
        <time>2024-10-19T10:31:16.000Z</time>
      </trkpt>
      <trkpt lat="33.574261" lon="-116.21599">
        <ele>-28.479996</ele>
        <time>2024-10-19T10:31:26.000Z</time>
      </trkpt>
      <trkpt lat="33.5751019999" lon="-116.215983">
        <ele>-29.140006</ele>
        <time>2024-10-19T10:31:35.000Z</time>
      </trkpt>
      <trkpt lat="33.575958" lon="-116.215982">
        <ele>-29.579993</ele>
        <time>2024-10-19T10:31:45.000Z</time>
      </trkpt>
      <trkpt lat="33.57669" lon="-116.216019">
        <ele>-29.860001</ele>
        <time>2024-10-19T10:31:53.000Z</time>
      </trkpt>
      <trkpt lat="33.577421" lon="-116.216024">
        <ele>-30.160006</ele>
        <time>2024-10-19T10:32:01.000Z</time>
      </trkpt>
      <trkpt lat="33.578262" lon="-116.216022">
        <ele>-30.709994</ele>
        <time>2024-10-19T10:32:10.000Z</time>
      </trkpt>
      <trkpt lat="33.579072" lon="-116.216002001">
        <ele>-30.969996</ele>
        <time>2024-10-19T10:32:19.000Z</time>
      </trkpt>
      <trkpt lat="33.579895" lon="-116.215996001">
        <ele>-31.429999</ele>
        <time>2024-10-19T10:32:28.000Z</time>
      </trkpt>
      <trkpt lat="33.580734" lon="-116.215992">
        <ele>-31.859999</ele>
        <time>2024-10-19T10:32:37.000Z</time>
      </trkpt>
      <trkpt lat="33.581547" lon="-116.215984">
        <ele>-32.319991</ele>
        <time>2024-10-19T10:32:46.000Z</time>
      </trkpt>
      <trkpt lat="33.5822876666" lon="-116.216013333">
        <ele>-32.570002</ele>
        <time>2024-10-19T10:32:54.000Z</time>
      </trkpt>
      <trkpt lat="33.5830163333" lon="-116.216053666">
        <ele>-32.840001</ele>
        <time>2024-10-19T10:33:02.000Z</time>
      </trkpt>
      <trkpt lat="33.58376" lon="-116.216079">
        <ele>-32.839991</ele>
        <time>2024-10-19T10:33:10.000Z</time>
      </trkpt>
      <trkpt lat="33.584479" lon="-116.216064">
        <ele>-32.880003</ele>
        <time>2024-10-19T10:33:18.000Z</time>
      </trkpt>
      <trkpt lat="33.58522" lon="-116.216064001">
        <ele>-32.820003</ele>
        <time>2024-10-19T10:33:26.000Z</time>
      </trkpt>
      <trkpt lat="33.585942" lon="-116.216054001">
        <ele>-32.879994</ele>
        <time>2024-10-19T10:33:34.000Z</time>
      </trkpt>
      <trkpt lat="33.586675" lon="-116.216048">
        <ele>-32.750004</ele>
        <time>2024-10-19T10:33:42.000Z</time>
      </trkpt>
      <trkpt lat="33.587403" lon="-116.216025">
        <ele>-32.590003</ele>
        <time>2024-10-19T10:33:50.000Z</time>
      </trkpt>
      <trkpt lat="33.58824725" lon="-116.216036499">
        <ele>-32.500006</ele>
        <time>2024-10-19T10:33:59.000Z</time>
      </trkpt>
      <trkpt lat="33.5890855" lon="-116.216058999">
        <ele>-32.320005</ele>
        <time>2024-10-19T10:34:08.000Z</time>
      </trkpt>
      <trkpt lat="33.58993475" lon="-116.216061498">
        <ele>-32.180006</ele>
        <time>2024-10-19T10:34:17.000Z</time>
      </trkpt>
      <trkpt lat="33.5907770001" lon="-116.216086998">
        <ele>-32.139996</ele>
        <time>2024-10-19T10:34:26.000Z</time>
      </trkpt>
      <trkpt lat="33.5916242501" lon="-116.216097498">
        <ele>-32.110003</ele>
        <time>2024-10-19T10:34:35.000Z</time>
      </trkpt>
      <trkpt lat="33.5924685001" lon="-116.216107999">
        <ele>-31.930002</ele>
        <time>2024-10-19T10:34:44.000Z</time>
      </trkpt>
      <trkpt lat="33.5933287501" lon="-116.216121499">
        <ele>-31.769992</ele>
        <time>2024-10-19T10:34:54.000Z</time>
      </trkpt>
      <trkpt lat="33.594178" lon="-116.216135">
        <ele>-31.639994</ele>
        <time>2024-10-19T10:35:03.000Z</time>
      </trkpt>
      <trkpt lat="33.594989" lon="-116.216115001">
        <ele>-32.160007</ele>
        <time>2024-10-19T10:35:12.000Z</time>
      </trkpt>
      <trkpt lat="33.595804" lon="-116.216078001">
        <ele>-32.529997</ele>
        <time>2024-10-19T10:35:21.000Z</time>
      </trkpt>
      <trkpt lat="33.596629" lon="-116.216055001">
        <ele>-32.840009</ele>
        <time>2024-10-19T10:35:30.000Z</time>
      </trkpt>
      <trkpt lat="33.597441" lon="-116.216037001">
        <ele>-32.880009</ele>
        <time>2024-10-19T10:35:39.000Z</time>
      </trkpt>
      <trkpt lat="33.598277" lon="-116.216023">
        <ele>-32.000006</ele>
        <time>2024-10-19T10:35:48.000Z</time>
      </trkpt>
      <trkpt lat="33.5991315294" lon="-116.216018529">
        <ele>-31.909992</ele>
        <time>2024-10-19T10:35:58.000Z</time>
      </trkpt>
      <trkpt lat="33.5999980588" lon="-116.216018058">
        <ele>-30.880003</ele>
        <time>2024-10-19T10:36:08.000Z</time>
      </trkpt>
      <trkpt lat="33.6008535882" lon="-116.216021587">
        <ele>-30.260005</ele>
        <time>2024-10-19T10:36:18.000Z</time>
      </trkpt>
      <trkpt lat="33.6017261177" lon="-116.216035116">
        <ele>-29.170007</ele>
        <time>2024-10-19T10:36:28.000Z</time>
      </trkpt>
      <trkpt lat="33.6025816471" lon="-116.216042645">
        <ele>-28.780005</ele>
        <time>2024-10-19T10:36:38.000Z</time>
      </trkpt>
      <trkpt lat="33.6034511765" lon="-116.216048174">
        <ele>-28.310007</ele>
        <time>2024-10-19T10:36:48.000Z</time>
      </trkpt>
      <trkpt lat="33.6043107059" lon="-116.216048703">
        <ele>-28.050001</ele>
        <time>2024-10-19T10:36:58.000Z</time>
      </trkpt>
      <trkpt lat="33.6051822353" lon="-116.216052233">
        <ele>-27.910006</ele>
        <time>2024-10-19T10:37:08.000Z</time>
      </trkpt>
      <trkpt lat="33.6060467647" lon="-116.216054762">
        <ele>-28.069997</ele>
        <time>2024-10-19T10:37:18.000Z</time>
      </trkpt>
      <trkpt lat="33.6069012941" lon="-116.216051292">
        <ele>-28.039992</ele>
        <time>2024-10-19T10:37:28.000Z</time>
      </trkpt>
      <trkpt lat="33.6077768235" lon="-116.216065821">
        <ele>-27.970008</ele>
        <time>2024-10-19T10:37:38.000Z</time>
      </trkpt>
      <trkpt lat="33.608628353" lon="-116.216054351">
        <ele>-27.899994</ele>
        <time>2024-10-19T10:37:47.000Z</time>
      </trkpt>
      <trkpt lat="33.6095028824" lon="-116.216071881">
        <ele>-27.770009</ele>
        <time>2024-10-19T10:37:57.000Z</time>
      </trkpt>
      <trkpt lat="33.6103644118" lon="-116.21607241">
        <ele>-27.519997</ele>
        <time>2024-10-19T10:38:07.000Z</time>
      </trkpt>
      <trkpt lat="33.6112279412" lon="-116.21607994">
        <ele>-27.2</ele>
        <time>2024-10-19T10:38:17.000Z</time>
      </trkpt>
      <trkpt lat="33.6120884706" lon="-116.21607347">
        <ele>-26.6</ele>
        <time>2024-10-19T10:38:27.000Z</time>
      </trkpt>
      <trkpt lat="33.612958" lon="-116.21608">
        <ele>-25.66</ele>
        <time>2024-10-19T10:38:37.000Z</time>
      </trkpt>
      <trkpt lat="33.6137963846" lon="-116.216079">
        <ele>-26.600007</ele>
        <time>2024-10-19T10:38:46.000Z</time>
      </trkpt>
      <trkpt lat="33.6146447692" lon="-116.216072">
        <ele>-26.639997</ele>
        <time>2024-10-19T10:38:55.000Z</time>
      </trkpt>
      <trkpt lat="33.6154901538" lon="-116.216081">
        <ele>-25.760001</ele>
        <time>2024-10-19T10:39:04.000Z</time>
      </trkpt>
      <trkpt lat="33.6163265385" lon="-116.216088">
        <ele>-25.330006</ele>
        <time>2024-10-19T10:39:13.000Z</time>
      </trkpt>
      <trkpt lat="33.6171719231" lon="-116.216077">
        <ele>-24.939993</ele>
        <time>2024-10-19T10:39:22.000Z</time>
      </trkpt>
      <trkpt lat="33.6180303077" lon="-116.216088">
        <ele>-24.370006</ele>
        <time>2024-10-19T10:39:32.000Z</time>
      </trkpt>
      <trkpt lat="33.6188766923" lon="-116.216081">
        <ele>-24.139999</ele>
        <time>2024-10-19T10:39:41.000Z</time>
      </trkpt>
      <trkpt lat="33.6197130769" lon="-116.216075">
        <ele>-23.979995</ele>
        <time>2024-10-19T10:39:50.000Z</time>
      </trkpt>
      <trkpt lat="33.6205584615" lon="-116.216084">
        <ele>-23.789994</ele>
        <time>2024-10-19T10:39:59.000Z</time>
      </trkpt>
      <trkpt lat="33.6213958462" lon="-116.216076">
        <ele>-23.640005</ele>
        <time>2024-10-19T10:40:08.000Z</time>
      </trkpt>
      <trkpt lat="33.6222552308" lon="-116.216084">
        <ele>-23.570005</ele>
        <time>2024-10-19T10:40:18.000Z</time>
      </trkpt>
      <trkpt lat="33.6230906154" lon="-116.216081">
        <ele>-23.38</ele>
        <time>2024-10-19T10:40:27.000Z</time>
      </trkpt>
      <trkpt lat="33.623933" lon="-116.21608">
        <ele>-23.030006</ele>
        <time>2024-10-19T10:40:36.000Z</time>
      </trkpt>
      <trkpt lat="33.627274" lon="-116.216084">
        <ele>-23.630003</ele>
        <time>2024-10-19T10:41:13.000Z</time>
      </trkpt>
      <trkpt lat="33.627555" lon="-116.216088">
        <ele>-23.280006</ele>
        <time>2024-10-19T10:41:16.000Z</time>
      </trkpt>
      <trkpt lat="33.6275520076" lon="-116.217091884">
        <ele>-23.369997</ele>
        <time>2024-10-19T10:41:25.000Z</time>
      </trkpt>
      <trkpt lat="33.6275430069" lon="-116.218106767">
        <ele>-22.780006</ele>
        <time>2024-10-19T10:41:34.000Z</time>
      </trkpt>
      <trkpt lat="33.6275239979" lon="-116.219130651">
        <ele>-22.529996</ele>
        <time>2024-10-19T10:41:43.000Z</time>
      </trkpt>
      <trkpt lat="33.6275159807" lon="-116.220150534">
        <ele>-22.179993</ele>
        <time>2024-10-19T10:41:52.000Z</time>
      </trkpt>
      <trkpt lat="33.6275239551" lon="-116.221159417">
        <ele>-21.950002</ele>
        <time>2024-10-19T10:42:01.000Z</time>
      </trkpt>
      <trkpt lat="33.6275119211" lon="-116.2221723">
        <ele>-21.919999</ele>
        <time>2024-10-19T10:42:10.000Z</time>
      </trkpt>
      <trkpt lat="33.6274918789" lon="-116.223182182">
        <ele>-21.660009</ele>
        <time>2024-10-19T10:42:19.000Z</time>
      </trkpt>
      <trkpt lat="33.6274968284" lon="-116.224202065">
        <ele>-21.519998</ele>
        <time>2024-10-19T10:42:28.000Z</time>
      </trkpt>
      <trkpt lat="33.6274817696" lon="-116.225216947">
        <ele>-20.969993</ele>
        <time>2024-10-19T10:42:37.000Z</time>
      </trkpt>
      <trkpt lat="33.6274847025" lon="-116.226242829">
        <ele>-20.909993</ele>
        <time>2024-10-19T10:42:46.000Z</time>
      </trkpt>
      <trkpt lat="33.627473627" lon="-116.227247711">
        <ele>-20.809997</ele>
        <time>2024-10-19T10:42:55.000Z</time>
      </trkpt>
      <trkpt lat="33.6274605433" lon="-116.228271593">
        <ele>-20.66</ele>
        <time>2024-10-19T10:43:04.000Z</time>
      </trkpt>
      <trkpt lat="33.6274544512" lon="-116.229277475">
        <ele>-20.480003</ele>
        <time>2024-10-19T10:43:13.000Z</time>
      </trkpt>
      <trkpt lat="33.6274573509" lon="-116.230311356">
        <ele>-20.569999</ele>
        <time>2024-10-19T10:43:23.000Z</time>
      </trkpt>
      <trkpt lat="33.6274532422" lon="-116.231316238">
        <ele>-20.469998</ele>
        <time>2024-10-19T10:43:32.000Z</time>
      </trkpt>
      <trkpt lat="33.6274351253" lon="-116.232343119">
        <ele>-20.089997</ele>
        <time>2024-10-19T10:43:42.000Z</time>
      </trkpt>
      <trkpt lat="33.627431" lon="-116.233348">
        <ele>-19.300003</ele>
        <time>2024-10-19T10:43:51.000Z</time>
      </trkpt>
      <trkpt lat="33.6274430041" lon="-116.234353">
        <ele>-19.560004</ele>
        <time>2024-10-19T10:44:00.000Z</time>
      </trkpt>
      <trkpt lat="33.627467" lon="-116.235361">
        <ele>-19.579991</ele>
        <time>2024-10-19T10:44:09.000Z</time>
      </trkpt>
      <trkpt lat="33.6274723527" lon="-116.236360666">
        <ele>-19.309996</ele>
        <time>2024-10-19T10:44:18.000Z</time>
      </trkpt>
      <trkpt lat="33.6274736977" lon="-116.237341333">
        <ele>-19.269998</ele>
        <time>2024-10-19T10:44:27.000Z</time>
      </trkpt>
      <trkpt lat="33.6274750349" lon="-116.238309">
        <ele>-18.980008</ele>
        <time>2024-10-19T10:44:36.000Z</time>
      </trkpt>
      <trkpt lat="33.6274843644" lon="-116.239292666">
        <ele>-18.710005</ele>
        <time>2024-10-19T10:44:45.000Z</time>
      </trkpt>
      <trkpt lat="33.6274776861" lon="-116.240285333">
        <ele>-18.430002</ele>
        <time>2024-10-19T10:44:54.000Z</time>
      </trkpt>
      <trkpt lat="33.627481" lon="-116.241266">
        <ele>-18.279998</ele>
        <time>2024-10-19T10:45:03.000Z</time>
      </trkpt>
      <trkpt lat="33.627495016" lon="-116.242262999">
        <ele>-17.920004</ele>
        <time>2024-10-19T10:45:12.000Z</time>
      </trkpt>
      <trkpt lat="33.627511024" lon="-116.243258999">
        <ele>-17.600001</ele>
        <time>2024-10-19T10:45:21.000Z</time>
      </trkpt>
      <trkpt lat="33.627534024" lon="-116.244250999">
        <ele>-17.39</ele>
        <time>2024-10-19T10:45:30.000Z</time>
      </trkpt>
      <trkpt lat="33.627530016" lon="-116.245250999">
        <ele>-17.030006</ele>
        <time>2024-10-19T10:45:39.000Z</time>
      </trkpt>
      <trkpt lat="33.627554" lon="-116.246242">
        <ele>-16.690009</ele>
        <time>2024-10-19T10:45:48.000Z</time>
      </trkpt>
      <trkpt lat="33.6275490136" lon="-116.247166">
        <ele>-16.269992</ele>
        <time>2024-10-19T10:45:57.000Z</time>
      </trkpt>
      <trkpt lat="33.6275550203" lon="-116.248083">
        <ele>-15.549992</ele>
        <time>2024-10-19T10:46:05.000Z</time>
      </trkpt>
      <trkpt lat="33.6275520203" lon="-116.249002">
        <ele>-14.79</ele>
        <time>2024-10-19T10:46:14.000Z</time>
      </trkpt>
      <trkpt lat="33.6275490136" lon="-116.249926">
        <ele>-14.030008</ele>
        <time>2024-10-19T10:46:23.000Z</time>
      </trkpt>
      <trkpt lat="33.627555" lon="-116.250848">
        <ele>-13.440005</ele>
        <time>2024-10-19T10:46:32.000Z</time>
      </trkpt>
      <trkpt lat="33.627542006" lon="-116.251711667">
        <ele>-13.870004</ele>
        <time>2024-10-19T10:46:40.000Z</time>
      </trkpt>
      <trkpt lat="33.627527006" lon="-116.252575334">
        <ele>-13.529995</ele>
        <time>2024-10-19T10:46:48.000Z</time>
      </trkpt>
      <trkpt lat="33.627525" lon="-116.253441">
        <ele>-13.219999</ele>
        <time>2024-10-19T10:46:56.000Z</time>
      </trkpt>
      <trkpt lat="33.6275370156" lon="-116.254428">
        <ele>-12.590002</ele>
        <time>2024-10-19T10:47:05.000Z</time>
      </trkpt>
      <trkpt lat="33.6275480235" lon="-116.255413999">
        <ele>-11.939992</ele>
        <time>2024-10-19T10:47:14.000Z</time>
      </trkpt>
      <trkpt lat="33.6275470235" lon="-116.256399999">
        <ele>-11.690001</ele>
        <time>2024-10-19T10:47:23.000Z</time>
      </trkpt>
      <trkpt lat="33.6275510156" lon="-116.257382999">
        <ele>-11.949993</ele>
        <time>2024-10-19T10:47:32.000Z</time>
      </trkpt>
      <trkpt lat="33.627574" lon="-116.258377">
        <ele>-11.870003</ele>
        <time>2024-10-19T10:47:41.000Z</time>
      </trkpt>
      <trkpt lat="33.6275610362" lon="-116.259440111">
        <ele>-11.299998</ele>
        <time>2024-10-19T10:47:51.000Z</time>
      </trkpt>
      <trkpt lat="33.6275630634" lon="-116.260484222">
        <ele>-10.620001</ele>
        <time>2024-10-19T10:48:01.000Z</time>
      </trkpt>
      <trkpt lat="33.6275620816" lon="-116.261549333">
        <ele>-9.619993</ele>
        <time>2024-10-19T10:48:11.000Z</time>
      </trkpt>
      <trkpt lat="33.6275710906" lon="-116.262622444">
        <ele>-8.890007</ele>
        <time>2024-10-19T10:48:21.000Z</time>
      </trkpt>
      <trkpt lat="33.6275690906" lon="-116.263670556">
        <ele>-7.820007</ele>
        <time>2024-10-19T10:48:31.000Z</time>
      </trkpt>
      <trkpt lat="33.6275690816" lon="-116.264742667">
        <ele>-6.819999</ele>
        <time>2024-10-19T10:48:41.000Z</time>
      </trkpt>
      <trkpt lat="33.6275760634" lon="-116.265793778">
        <ele>-4.980009</ele>
        <time>2024-10-19T10:48:51.000Z</time>
      </trkpt>
      <trkpt lat="33.6275770362" lon="-116.266867889">
        <ele>-3.380003</ele>
        <time>2024-10-19T10:49:01.000Z</time>
      </trkpt>
      <trkpt lat="33.627572" lon="-116.267914">
        <ele>-1.870009</ele>
        <time>2024-10-19T10:49:11.000Z</time>
      </trkpt>
      <trkpt lat="33.627531" lon="-116.268023">
        <ele>-1.87</ele>
        <time>2024-10-19T10:49:12.000Z</time>
      </trkpt>
      <trkpt lat="33.627406" lon="-116.268132">
        <ele>-1.829998</ele>
        <time>2024-10-19T10:49:14.000Z</time>
      </trkpt>
      <trkpt lat="33.626679" lon="-116.268093">
        <ele>-1.119995</ele>
        <time>2024-10-19T10:49:22.000Z</time>
      </trkpt>
      <trkpt lat="33.627452" lon="-116.268086">
        <ele>-1.830009</ele>
        <time>2024-10-19T10:49:31.000Z</time>
      </trkpt>
      <trkpt lat="33.627419" lon="-116.268137">
        <ele>-1.830006</ele>
        <time>2024-10-19T10:49:32.000Z</time>
      </trkpt>
      <trkpt lat="33.626672" lon="-116.268098">
        <ele>-1.099998</ele>
        <time>2024-10-19T10:49:40.000Z</time>
      </trkpt>
      <trkpt lat="33.626382" lon="-116.268144">
        <ele>0.300007</ele>
        <time>2024-10-19T10:49:43.000Z</time>
      </trkpt>
      <trkpt lat="33.625916" lon="-116.268283">
        <ele>3.290005</ele>
        <time>2024-10-19T10:49:48.000Z</time>
      </trkpt>
      <trkpt lat="33.625463" lon="-116.268505">
        <ele>7.78</ele>
        <time>2024-10-19T10:49:53.000Z</time>
      </trkpt>
      <trkpt lat="33.625043" lon="-116.268868">
        <ele>10.230004</ele>
        <time>2024-10-19T10:49:59.000Z</time>
      </trkpt>
      <trkpt lat="33.624707" lon="-116.269232">
        <ele>9.949992</ele>
        <time>2024-10-19T10:50:04.000Z</time>
      </trkpt>
      <trkpt lat="33.624469" lon="-116.269656">
        <ele>7.919997</ele>
        <time>2024-10-19T10:50:09.000Z</time>
      </trkpt>
      <trkpt lat="33.624358" lon="-116.269899">
        <ele>7.130001</ele>
        <time>2024-10-19T10:50:12.000Z</time>
      </trkpt>
      <trkpt lat="33.624299" lon="-116.270102">
        <ele>6.959993</ele>
        <time>2024-10-19T10:50:14.000Z</time>
      </trkpt>
      <trkpt lat="33.624415" lon="-116.270516">
        <ele>6.450003</ele>
        <time>2024-10-19T10:50:18.000Z</time>
      </trkpt>
      <trkpt lat="33.6247050019" lon="-116.271204998">
        <ele>6.650002</ele>
        <time>2024-10-19T10:50:25.000Z</time>
      </trkpt>
      <trkpt lat="33.625009" lon="-116.271902">
        <ele>6.159992</ele>
        <time>2024-10-19T10:50:32.000Z</time>
      </trkpt>
      <trkpt lat="33.625342" lon="-116.272527">
        <ele>5.719991</ele>
        <time>2024-10-19T10:50:39.000Z</time>
      </trkpt>
      <trkpt lat="33.625836" lon="-116.273301">
        <ele>4.62</ele>
        <time>2024-10-19T10:50:48.000Z</time>
      </trkpt>
      <trkpt lat="33.6264570021" lon="-116.274030995">
        <ele>3.319996</ele>
        <time>2024-10-19T10:50:58.000Z</time>
      </trkpt>
      <trkpt lat="33.627071" lon="-116.274765">
        <ele>3.439993</ele>
        <time>2024-10-19T10:51:08.000Z</time>
      </trkpt>
      <trkpt lat="33.627523" lon="-116.275403">
        <ele>4.770007</ele>
        <time>2024-10-19T10:51:16.000Z</time>
      </trkpt>
      <trkpt lat="33.627805001" lon="-116.275877999">
        <ele>6.34</ele>
        <time>2024-10-19T10:51:21.000Z</time>
      </trkpt>
      <trkpt lat="33.628084" lon="-116.276343">
        <ele>8.390006</ele>
        <time>2024-10-19T10:51:26.000Z</time>
      </trkpt>
      <trkpt lat="33.628265" lon="-116.276736">
        <ele>10.370003</ele>
        <time>2024-10-19T10:51:30.000Z</time>
      </trkpt>
      <trkpt lat="33.628518" lon="-116.277463">
        <ele>13.349994</ele>
        <time>2024-10-19T10:51:37.000Z</time>
      </trkpt>
      <trkpt lat="33.62861" lon="-116.277646">
        <ele>13.660008</ele>
        <time>2024-10-19T10:51:39.000Z</time>
      </trkpt>
      <trkpt lat="33.628832" lon="-116.277769">
        <ele>14.309999</ele>
        <time>2024-10-19T10:51:42.000Z</time>
      </trkpt>
      <trkpt lat="33.629099" lon="-116.277736">
        <ele>14.510006</ele>
        <time>2024-10-19T10:51:45.000Z</time>
      </trkpt>
      <trkpt lat="33.629318" lon="-116.277642">
        <ele>13.929993</ele>
        <time>2024-10-19T10:51:48.000Z</time>
      </trkpt>
      <trkpt lat="33.629613" lon="-116.277399">
        <ele>11.909999</ele>
        <time>2024-10-19T10:51:52.000Z</time>
      </trkpt>
      <trkpt lat="33.629925" lon="-116.277959">
        <ele>9.899994</ele>
        <time>2024-10-19T10:51:58.000Z</time>
      </trkpt>
      <trkpt lat="33.630149" lon="-116.278182">
        <ele>9.289991</ele>
        <time>2024-10-19T10:52:01.000Z</time>
      </trkpt>
      <trkpt lat="33.630344" lon="-116.278308">
        <ele>8.449995</ele>
        <time>2024-10-19T10:52:03.000Z</time>
      </trkpt>
      <trkpt lat="33.630423" lon="-116.278342">
        <ele>7.830004</ele>
        <time>2024-10-19T10:52:04.000Z</time>
      </trkpt>
      <trkpt lat="33.630527" lon="-116.278345">
        <ele>7.560005</ele>
        <time>2024-10-19T10:52:05.000Z</time>
      </trkpt>
      <trkpt lat="33.631406" lon="-116.278169">
        <ele>6.250008</ele>
        <time>2024-10-19T10:52:15.000Z</time>
      </trkpt>
      <trkpt lat="33.631565" lon="-116.278127">
        <ele>6.230009</ele>
        <time>2024-10-19T10:52:17.000Z</time>
      </trkpt>
      <trkpt lat="33.631554" lon="-116.27813">
        <ele>6.229993</ele>
        <time>2024-10-19T10:52:17.000Z</time>
      </trkpt>
      <trkpt lat="33.631518" lon="-116.27796">
        <ele>5.809992</ele>
        <time>2024-10-19T10:52:19.000Z</time>
      </trkpt>
    </trkseg>
  </trk>
</gpx>

<!--
Performance optimized by W3 Total Cache. Learn more: https://www.boldgrid.com/w3-total-cache/?utm_source=w3tc&utm_medium=footer_comment&utm_campaign=free_plugin

Page Caching using Disk: Enhanced{w3tc_pagecache_reject_reason} 

Served from: www.aquabike.world @ 2026-05-10 07:31:40 by W3 Total Cache
-->